Delta Virtual Airport Information Service

Siem Reap International Airport

ICAO: VDSR Country: Cambodia
Latitude: 13.4107 Longitude: 103.813
Latest Arrival : DAL7556201 (WMKA-VDSR) Latest Departure : DAL7556201 (VDSR-VVNB)


WX CaptureLIVE
Data provided by noaa.gov | Fetched at 09:01:12

METAR : VDSR 301400Z VRB02KT 9000 SCT015 SCT040 25/21 Q1012

TAF : VDSR 291100Z 2912/3006 03009KT 9999 SCT017 SCT040


Runway Data for VDSR
Data provided by openaviationdata.com

Runway ID Mag Var Hdg Length Elevation Surface ILS Freq ILS Id ILS Slope
5 -1 49° 8415 ft 60 ft Concrete -- -- --
23 -1 229° 8415 ft 60 ft Concrete -- -- --

Siem Reap International Airport, Cambodia
Use only for reference purposes



Not for navigational purposes.